KQEW

Sangju Rws

Sangju Rws, South Korea
METAR KQEW 232320Z AUTO 27007G12KT 9999 CLR M13/M28 A3034 RMK A02 TSNO
Observed Flight Rules
Jan-23 @ 23:20 UTC (11 minutes ago) Visual Flight Rules
Wind Visibility Clouds
270° at 7 knots
 Gusting to 12 knots
10,000+ meters
  • Clear skies
Temperatures Readings
Current -13°C / 9°F
Dewpoint -28°C / -18°F
Humidity 27%
Altimeter 30.34" Hg
Pressure 1027 hPa
METAR KQEW 232320Z AUTO 27007G12KT 9999 CLR M13/M28 A3034 RMK A02 TSNO
Observed Flight Rules
Jan-23 @ 23:20 UTC
(11 minutes ago)
VFR
Wind Visibility
270° at 7 knots
 Gusting to 12 knots
10,000+ meters
Clouds
  • Clear skies
Temperature Dewpoint
-13°C / 9°F -28°C / -18°F
Humidity Altimeter Pressure
27% 30.34" Hg 1027 hPa